sensor_id;sensor_type;location;lat;lon;timestamp;temperature;humidity
1259;DHT22;619;51.472;6.628;2022-07-29T00:00:03;24.60;51.50
1259;DHT22;619;51.472;6.628;2022-07-29T00:02:30;24.60;51.70
1259;DHT22;619;51.472;6.628;2022-07-29T00:04:57;24.60;51.70
1259;DHT22;619;51.472;6.628;2022-07-29T00:07:23;24.60;51.60
1259;DHT22;619;51.472;6.628;2022-07-29T00:09:48;24.60;51.60
1259;DHT22;619;51.472;6.628;2022-07-29T00:12:14;24.60;51.60
1259;DHT22;619;51.472;6.628;2022-07-29T00:14:42;24.60;51.50
1259;DHT22;619;51.472;6.628;2022-07-29T00:17:08;24.70;51.40
1259;DHT22;619;51.472;6.628;2022-07-29T00:19:34;24.60;51.10
1259;DHT22;619;51.472;6.628;2022-07-29T00:22:00;24.60;51.40
1259;DHT22;619;51.472;6.628;2022-07-29T00:24:26;24.60;51.30
1259;DHT22;619;51.472;6.628;2022-07-29T00:26:54;24.60;51.50
1259;DHT22;619;51.472;6.628;2022-07-29T00:29:20;24.60;51.50
1259;DHT22;619;51.472;6.628;2022-07-29T00:31:45;24.60;51.60
1259;DHT22;619;51.472;6.628;2022-07-29T00:34:13;24.60;51.60
1259;DHT22;619;51.472;6.628;2022-07-29T00:36:57;24.50;51.50
1259;DHT22;619;51.472;6.628;2022-07-29T00:39:25;24.50;51.70
1259;DHT22;619;51.472;6.628;2022-07-29T00:41:51;24.50;51.50
1259;DHT22;619;51.472;6.628;2022-07-29T00:44:19;24.40;51.60
1259;DHT22;619;51.472;6.628;2022-07-29T00:46:44;24.40;51.70
1259;DHT22;619;51.472;6.628;2022-07-29T00:49:13;24.40;51.80
1259;DHT22;619;51.472;6.628;2022-07-29T00:51:39;24.40;52.00
1259;DHT22;619;51.472;6.628;2022-07-29T00:54:07;24.40;51.90
1259;DHT22;619;51.472;6.628;2022-07-29T00:56:33;24.40;52.10
1259;DHT22;619;51.472;6.628;2022-07-29T00:59:03;24.30;52.10
1259;DHT22;619;51.472;6.628;2022-07-29T01:01:31;24.20;51.90
1259;DHT22;619;51.472;6.628;2022-07-29T01:03:57;24.30;52.10
1259;DHT22;619;51.472;6.628;2022-07-29T01:06:23;24.30;52.10
1259;DHT22;619;51.472;6.628;2022-07-29T01:08:50;24.20;52.20
1259;DHT22;619;51.472;6.628;2022-07-29T01:11:20;24.20;52.70
1259;DHT22;619;51.472;6.628;2022-07-29T01:13:48;24.20;52.20
1259;DHT22;619;51.472;6.628;2022-07-29T01:16:30;24.20;52.40
1259;DHT22;619;51.472;6.628;2022-07-29T01:19:12;24.20;52.80
1259;DHT22;619;51.472;6.628;2022-07-29T01:21:54;24.10;52.20
1259;DHT22;619;51.472;6.628;2022-07-29T01:27:44;24.10;52.10
1259;DHT22;619;51.472;6.628;2022-07-29T01:30:13;24.10;52.00
1259;DHT22;619;51.472;6.628;2022-07-29T01:32:39;24.10;52.10
1259;DHT22;619;51.472;6.628;2022-07-29T01:35:22;24.10;52.10
1259;DHT22;619;51.472;6.628;2022-07-29T01:38:05;24.10;52.20
1259;DHT22;619;51.472;6.628;2022-07-29T01:40:51;24.00;52.30
1259;DHT22;619;51.472;6.628;2022-07-29T01:43:27;24.00;52.40
1259;DHT22;619;51.472;6.628;2022-07-29T01:46:03;24.00;52.30
1259;DHT22;619;51.472;6.628;2022-07-29T01:53:37;24.00;52.40
1259;DHT22;619;51.472;6.628;2022-07-29T01:56:04;24.00;52.50
1259;DHT22;619;51.472;6.628;2022-07-29T01:58:35;24.10;52.50
1259;DHT22;619;51.472;6.628;2022-07-29T02:01:03;24.00;52.40
1259;DHT22;619;51.472;6.628;2022-07-29T02:03:31;24.10;52.40
1259;DHT22;619;51.472;6.628;2022-07-29T02:05:59;24.10;52.40
1259;DHT22;619;51.472;6.628;2022-07-29T02:08:28;24.10;52.60
1259;DHT22;619;51.472;6.628;2022-07-29T02:10:55;24.10;52.60
1259;DHT22;619;51.472;6.628;2022-07-29T02:13:22;24.10;52.60
1259;DHT22;619;51.472;6.628;2022-07-29T02:15:52;24.10;52.80
1259;DHT22;619;51.472;6.628;2022-07-29T02:18:22;24.20;53.10
1259;DHT22;619;51.472;6.628;2022-07-29T02:20:52;24.20;53.20
1259;DHT22;619;51.472;6.628;2022-07-29T02:23:23;24.20;53.10
1259;DHT22;619;51.472;6.628;2022-07-29T02:25:51;24.10;52.90
1259;DHT22;619;51.472;6.628;2022-07-29T02:28:22;24.00;52.90
1259;DHT22;619;51.472;6.628;2022-07-29T02:30:50;24.00;53.00
1259;DHT22;619;51.472;6.628;2022-07-29T02:33:20;24.00;53.00
1259;DHT22;619;51.472;6.628;2022-07-29T02:35:47;23.90;53.20
1259;DHT22;619;51.472;6.628;2022-07-29T02:38:18;23.80;53.30
1259;DHT22;619;51.472;6.628;2022-07-29T02:41:08;23.70;53.90
1259;DHT22;619;51.472;6.628;2022-07-29T02:43:40;23.60;53.70
1259;DHT22;619;51.472;6.628;2022-07-29T02:46:13;23.60;54.00
1259;DHT22;619;51.472;6.628;2022-07-29T02:49:04;23.50;54.30
1259;DHT22;619;51.472;6.628;2022-07-29T02:51:53;23.40;54.60
1259;DHT22;619;51.472;6.628;2022-07-29T02:54:31;23.30;55.00
1259;DHT22;619;51.472;6.628;2022-07-29T02:57:01;23.30;55.10
1259;DHT22;619;51.472;6.628;2022-07-29T02:59:30;23.20;55.30
1259;DHT22;619;51.472;6.628;2022-07-29T03:02:02;23.20;55.60
1259;DHT22;619;51.472;6.628;2022-07-29T03:04:33;23.10;55.90
1259;DHT22;619;51.472;6.628;2022-07-29T03:07:03;23.00;56.10
1259;DHT22;619;51.472;6.628;2022-07-29T03:09:33;23.00;56.40
1259;DHT22;619;51.472;6.628;2022-07-29T03:12:00;22.90;56.50
1259;DHT22;619;51.472;6.628;2022-07-29T03:14:29;22.90;56.70
1259;DHT22;619;51.472;6.628;2022-07-29T03:16:56;22.80;56.90
1259;DHT22;619;51.472;6.628;2022-07-29T03:19:22;22.80;57.10
1259;DHT22;619;51.472;6.628;2022-07-29T03:21:48;22.70;57.10
1259;DHT22;619;51.472;6.628;2022-07-29T03:24:34;22.60;57.30
1259;DHT22;619;51.472;6.628;2022-07-29T03:27:00;22.70;57.60
1259;DHT22;619;51.472;6.628;2022-07-29T03:29:27;22.70;57.70
1259;DHT22;619;51.472;6.628;2022-07-29T03:31:53;22.70;57.80
1259;DHT22;619;51.472;6.628;2022-07-29T03:34:19;22.70;57.70
1259;DHT22;619;51.472;6.628;2022-07-29T03:36:47;22.80;57.80
1259;DHT22;619;51.472;6.628;2022-07-29T03:39:17;22.80;57.80
1259;DHT22;619;51.472;6.628;2022-07-29T03:41:44;22.80;57.60
1259;DHT22;619;51.472;6.628;2022-07-29T03:44:12;22.90;57.50
1259;DHT22;619;51.472;6.628;2022-07-29T03:46:41;22.90;57.30
1259;DHT22;619;51.472;6.628;2022-07-29T03:49:08;23.00;57.10
1259;DHT22;619;51.472;6.628;2022-07-29T03:51:35;23.00;57.10
1259;DHT22;619;51.472;6.628;2022-07-29T03:54:03;23.10;57.10
1259;DHT22;619;51.472;6.628;2022-07-29T03:56:30;23.10;56.80
1259;DHT22;619;51.472;6.628;2022-07-29T03:59:02;23.10;56.80
1259;DHT22;619;51.472;6.628;2022-07-29T04:01:29;23.20;56.70
1259;DHT22;619;51.472;6.628;2022-07-29T04:03:55;23.20;56.50
1259;DHT22;619;51.472;6.628;2022-07-29T04:06:23;23.30;57.00
1259;DHT22;619;51.472;6.628;2022-07-29T04:08:51;23.30;59.20
1259;DHT22;619;51.472;6.628;2022-07-29T04:11:16;23.20;63.60
1259;DHT22;619;51.472;6.628;2022-07-29T04:13:42;23.10;66.20
1259;DHT22;619;51.472;6.628;2022-07-29T04:16:08;23.00;67.60
1259;DHT22;619;51.472;6.628;2022-07-29T04:18:36;22.90;68.30
1259;DHT22;619;51.472;6.628;2022-07-29T04:21:04;22.80;69.30
1259;DHT22;619;51.472;6.628;2022-07-29T04:23:32;22.60;70.10
1259;DHT22;619;51.472;6.628;2022-07-29T04:25:58;22.40;71.00
1259;DHT22;619;51.472;6.628;2022-07-29T04:28:28;22.30;71.80
1259;DHT22;619;51.472;6.628;2022-07-29T04:30:53;22.20;72.50
1259;DHT22;619;51.472;6.628;2022-07-29T04:33:19;22.10;73.50
1259;DHT22;619;51.472;6.628;2022-07-29T04:35:44;22.00;74.10
1259;DHT22;619;51.472;6.628;2022-07-29T04:38:10;21.90;74.70
1259;DHT22;619;51.472;6.628;2022-07-29T04:40:38;21.90;75.30
1259;DHT22;619;51.472;6.628;2022-07-29T04:43:03;21.80;75.60
1259;DHT22;619;51.472;6.628;2022-07-29T04:45:31;21.80;75.80
1259;DHT22;619;51.472;6.628;2022-07-29T04:47:57;21.70;75.40
1259;DHT22;619;51.472;6.628;2022-07-29T04:50:22;21.60;75.40
1259;DHT22;619;51.472;6.628;2022-07-29T04:52:50;21.50;75.60
1259;DHT22;619;51.472;6.628;2022-07-29T04:55:16;21.50;75.60
1259;DHT22;619;51.472;6.628;2022-07-29T04:57:42;21.40;75.90
1259;DHT22;619;51.472;6.628;2022-07-29T05:00:08;21.30;76.10
1259;DHT22;619;51.472;6.628;2022-07-29T05:02:34;21.30;76.50
1259;DHT22;619;51.472;6.628;2022-07-29T05:04:59;21.20;76.50
1259;DHT22;619;51.472;6.628;2022-07-29T05:07:25;21.20;76.60
1259;DHT22;619;51.472;6.628;2022-07-29T05:09:53;21.20;76.50
1259;DHT22;619;51.472;6.628;2022-07-29T05:12:21;21.20;76.00
1259;DHT22;619;51.472;6.628;2022-07-29T05:14:46;21.20;75.80
1259;DHT22;619;51.472;6.628;2022-07-29T05:17:14;21.20;75.50
1259;DHT22;619;51.472;6.628;2022-07-29T05:19:40;21.10;75.90
1259;DHT22;619;51.472;6.628;2022-07-29T05:22:08;21.20;76.50
1259;DHT22;619;51.472;6.628;2022-07-29T05:24:34;21.20;76.50
1259;DHT22;619;51.472;6.628;2022-07-29T05:26:59;21.20;75.90
1259;DHT22;619;51.472;6.628;2022-07-29T05:29:27;21.20;76.10
1259;DHT22;619;51.472;6.628;2022-07-29T05:31:53;21.10;76.10
1259;DHT22;619;51.472;6.628;2022-07-29T05:34:19;21.10;76.50
1259;DHT22;619;51.472;6.628;2022-07-29T05:36:45;21.10;76.70
1259;DHT22;619;51.472;6.628;2022-07-29T05:39:13;21.10;76.60
1259;DHT22;619;51.472;6.628;2022-07-29T05:41:39;21.10;76.90
1259;DHT22;619;51.472;6.628;2022-07-29T05:44:07;21.10;77.20
1259;DHT22;619;51.472;6.628;2022-07-29T05:46:33;21.10;77.00
1259;DHT22;619;51.472;6.628;2022-07-29T05:48:59;21.10;77.20
1259;DHT22;619;51.472;6.628;2022-07-29T05:51:26;21.10;77.20
1259;DHT22;619;51.472;6.628;2022-07-29T05:53:52;21.00;77.20
1259;DHT22;619;51.472;6.628;2022-07-29T05:56:18;21.00;77.10
1259;DHT22;619;51.472;6.628;2022-07-29T05:58:44;21.00;77.10
1259;DHT22;619;51.472;6.628;2022-07-29T06:01:09;21.00;77.20
1259;DHT22;619;51.472;6.628;2022-07-29T06:03:37;21.00;77.70
1259;DHT22;619;51.472;6.628;2022-07-29T06:06:03;21.10;78.10
1259;DHT22;619;51.472;6.628;2022-07-29T06:08:31;21.10;78.10
1259;DHT22;619;51.472;6.628;2022-07-29T06:10:59;21.10;78.10
1259;DHT22;619;51.472;6.628;2022-07-29T06:13:25;21.20;77.90
1259;DHT22;619;51.472;6.628;2022-07-29T06:15:50;21.20;77.70
1259;DHT22;619;51.472;6.628;2022-07-29T06:18:16;21.20;76.90
1259;DHT22;619;51.472;6.628;2022-07-29T06:20:42;21.20;76.90
1259;DHT22;619;51.472;6.628;2022-07-29T06:23:08;21.30;77.20
1259;DHT22;619;51.472;6.628;2022-07-29T06:25:35;21.30;77.00
1259;DHT22;619;51.472;6.628;2022-07-29T06:28:02;21.30;76.80
1259;DHT22;619;51.472;6.628;2022-07-29T06:30:28;21.40;77.10
1259;DHT22;619;51.472;6.628;2022-07-29T06:32:56;21.40;77.10
1259;DHT22;619;51.472;6.628;2022-07-29T06:35:22;21.50;77.00
1259;DHT22;619;51.472;6.628;2022-07-29T06:37:50;21.60;77.00
1259;DHT22;619;51.472;6.628;2022-07-29T06:40:16;21.60;76.90
1259;DHT22;619;51.472;6.628;2022-07-29T06:43:00;21.70;77.80
1259;DHT22;619;51.472;6.628;2022-07-29T06:45:25;21.80;76.70
1259;DHT22;619;51.472;6.628;2022-07-29T06:47:52;21.90;76.70
1259;DHT22;619;51.472;6.628;2022-07-29T06:50:20;21.90;76.80
1259;DHT22;619;51.472;6.628;2022-07-29T06:52:49;22.00;76.10
1259;DHT22;619;51.472;6.628;2022-07-29T06:55:17;22.10;75.80
1259;DHT22;619;51.472;6.628;2022-07-29T06:57:45;22.10;75.90
1259;DHT22;619;51.472;6.628;2022-07-29T07:00:14;22.10;76.00
1259;DHT22;619;51.472;6.628;2022-07-29T07:02:40;22.20;76.30
1259;DHT22;619;51.472;6.628;2022-07-29T07:05:06;22.20;76.50
1259;DHT22;619;51.472;6.628;2022-07-29T07:07:32;22.20;76.30
1259;DHT22;619;51.472;6.628;2022-07-29T07:09:57;22.20;76.50
1259;DHT22;619;51.472;6.628;2022-07-29T07:12:23;22.30;77.00
1259;DHT22;619;51.472;6.628;2022-07-29T07:14:51;22.20;77.10
1259;DHT22;619;51.472;6.628;2022-07-29T07:17:16;22.20;77.40
1259;DHT22;619;51.472;6.628;2022-07-29T07:19:42;22.20;77.20
1259;DHT22;619;51.472;6.628;2022-07-29T07:22:08;22.30;77.20
1259;DHT22;619;51.472;6.628;2022-07-29T07:24:36;22.20;77.30
1259;DHT22;619;51.472;6.628;2022-07-29T07:27:06;22.20;77.70
1259;DHT22;619;51.472;6.628;2022-07-29T07:29:31;22.20;78.30
1259;DHT22;619;51.472;6.628;2022-07-29T07:31:58;22.10;78.00
1259;DHT22;619;51.472;6.628;2022-07-29T07:34:23;22.10;77.90
1259;DHT22;619;51.472;6.628;2022-07-29T07:36:49;22.10;77.80
1259;DHT22;619;51.472;6.628;2022-07-29T07:39:15;22.10;77.80
1259;DHT22;619;51.472;6.628;2022-07-29T07:41:40;22.10;78.10
1259;DHT22;619;51.472;6.628;2022-07-29T07:44:06;22.20;78.40
1259;DHT22;619;51.472;6.628;2022-07-29T07:46:34;22.20;78.60
1259;DHT22;619;51.472;6.628;2022-07-29T07:49:02;22.20;78.70
1259;DHT22;619;51.472;6.628;2022-07-29T07:51:28;22.30;78.50
1259;DHT22;619;51.472;6.628;2022-07-29T07:53:53;22.40;78.10
1259;DHT22;619;51.472;6.628;2022-07-29T07:56:19;22.40;77.60
1259;DHT22;619;51.472;6.628;2022-07-29T07:58:45;22.50;77.50
1259;DHT22;619;51.472;6.628;2022-07-29T08:01:10;22.60;77.50
1259;DHT22;619;51.472;6.628;2022-07-29T08:03:38;22.60;77.30
1259;DHT22;619;51.472;6.628;2022-07-29T08:06:04;22.70;77.30
1259;DHT22;619;51.472;6.628;2022-07-29T08:08:30;22.70;77.20
1259;DHT22;619;51.472;6.628;2022-07-29T08:10:56;22.70;76.80
1259;DHT22;619;51.472;6.628;2022-07-29T08:13:27;22.80;77.00
1259;DHT22;619;51.472;6.628;2022-07-29T08:15:54;22.80;77.00
1259;DHT22;619;51.472;6.628;2022-07-29T08:18:24;22.90;77.00
1259;DHT22;619;51.472;6.628;2022-07-29T08:20:50;22.90;76.90
1259;DHT22;619;51.472;6.628;2022-07-29T08:23:16;23.00;76.90
1259;DHT22;619;51.472;6.628;2022-07-29T08:25:44;23.00;76.70
1259;DHT22;619;51.472;6.628;2022-07-29T08:28:10;23.00;77.00
1259;DHT22;619;51.472;6.628;2022-07-29T08:30:38;23.00;76.90
1259;DHT22;619;51.472;6.628;2022-07-29T08:33:06;23.00;76.90
1259;DHT22;619;51.472;6.628;2022-07-29T08:35:31;23.00;77.00
1259;DHT22;619;51.472;6.628;2022-07-29T08:37:59;23.00;77.00
1259;DHT22;619;51.472;6.628;2022-07-29T08:40:25;23.00;76.60
1259;DHT22;619;51.472;6.628;2022-07-29T08:42:51;23.00;76.30
1259;DHT22;619;51.472;6.628;2022-07-29T08:45:16;23.00;76.40
1259;DHT22;619;51.472;6.628;2022-07-29T08:47:44;22.90;76.50
1259;DHT22;619;51.472;6.628;2022-07-29T08:50:13;22.80;76.60
1259;DHT22;619;51.472;6.628;2022-07-29T08:52:40;22.80;77.10
1259;DHT22;619;51.472;6.628;2022-07-29T08:55:07;22.80;77.50
1259;DHT22;619;51.472;6.628;2022-07-29T08:57:34;22.90;77.70
1259;DHT22;619;51.472;6.628;2022-07-29T09:00:07;23.00;77.60
1259;DHT22;619;51.472;6.628;2022-07-29T09:02:38;23.10;77.60
1259;DHT22;619;51.472;6.628;2022-07-29T09:05:05;23.30;77.20
1259;DHT22;619;51.472;6.628;2022-07-29T09:07:31;23.50;77.70
1259;DHT22;619;51.472;6.628;2022-07-29T09:09:58;23.70;77.40
1259;DHT22;619;51.472;6.628;2022-07-29T09:12:24;24.00;77.20
1259;DHT22;619;51.472;6.628;2022-07-29T09:14:50;24.20;77.20
1259;DHT22;619;51.472;6.628;2022-07-29T09:17:16;24.50;76.90
1259;DHT22;619;51.472;6.628;2022-07-29T09:19:43;24.70;75.20
1259;DHT22;619;51.472;6.628;2022-07-29T09:22:09;24.80;74.00
1259;DHT22;619;51.472;6.628;2022-07-29T09:27:25;25.30;73.40
1259;DHT22;619;51.472;6.628;2022-07-29T09:30:08;25.40;72.80
1259;DHT22;619;51.472;6.628;2022-07-29T09:32:58;25.70;72.10
1259;DHT22;619;51.472;6.628;2022-07-29T09:35:27;25.90;71.30
1259;DHT22;619;51.472;6.628;2022-07-29T09:37:54;26.00;70.90
1259;DHT22;619;51.472;6.628;2022-07-29T09:40:27;26.10;69.90
1259;DHT22;619;51.472;6.628;2022-07-29T09:42:54;26.20;70.20
1259;DHT22;619;51.472;6.628;2022-07-29T09:45:33;26.30;70.10
1259;DHT22;619;51.472;6.628;2022-07-29T09:48:12;26.40;69.70
1259;DHT22;619;51.472;6.628;2022-07-29T09:50:42;26.40;69.50
1259;DHT22;619;51.472;6.628;2022-07-29T09:53:09;26.40;68.60
1259;DHT22;619;51.472;6.628;2022-07-29T09:55:53;26.50;68.40
1259;DHT22;619;51.472;6.628;2022-07-29T09:58:21;26.60;68.90
1259;DHT22;619;51.472;6.628;2022-07-29T10:00:47;26.60;68.40
1259;DHT22;619;51.472;6.628;2022-07-29T10:03:16;26.70;68.20
1259;DHT22;619;51.472;6.628;2022-07-29T10:05:42;26.90;68.00
1259;DHT22;619;51.472;6.628;2022-07-29T10:08:09;27.00;67.40
1259;DHT22;619;51.472;6.628;2022-07-29T10:10:39;27.00;67.20
1259;DHT22;619;51.472;6.628;2022-07-29T10:13:14;27.10;66.30
1259;DHT22;619;51.472;6.628;2022-07-29T10:15:44;27.10;65.80
1259;DHT22;619;51.472;6.628;2022-07-29T10:18:12;27.00;66.00
1259;DHT22;619;51.472;6.628;2022-07-29T10:20:39;27.00;66.10
1259;DHT22;619;51.472;6.628;2022-07-29T10:23:08;27.00;65.90
1259;DHT22;619;51.472;6.628;2022-07-29T10:25:36;27.00;65.40
1259;DHT22;619;51.472;6.628;2022-07-29T10:28:02;26.90;65.00
1259;DHT22;619;51.472;6.628;2022-07-29T10:30:28;26.80;65.00
1259;DHT22;619;51.472;6.628;2022-07-29T10:41:29;27.00;64.40
1259;DHT22;619;51.472;6.628;2022-07-29T10:44:12;27.10;65.10
1259;DHT22;619;51.472;6.628;2022-07-29T10:46:39;27.20;65.30
1259;DHT22;619;51.472;6.628;2022-07-29T10:49:13;27.20;64.50
1259;DHT22;619;51.472;6.628;2022-07-29T10:52:03;27.20;64.10
1259;DHT22;619;51.472;6.628;2022-07-29T10:59:39;27.50;63.60
1259;DHT22;619;51.472;6.628;2022-07-29T11:05:08;27.80;62.50
1259;DHT22;619;51.472;6.628;2022-07-29T11:07:35;27.90;60.80
1259;DHT22;619;51.472;6.628;2022-07-29T11:15:08;28.40;59.60
1259;DHT22;619;51.472;6.628;2022-07-29T11:42:36;30.40;52.40
1259;DHT22;619;51.472;6.628;2022-07-29T11:45:11;30.50;52.10
1259;DHT22;619;51.472;6.628;2022-07-29T11:50:14;30.60;52.20
1259;DHT22;619;51.472;6.628;2022-07-29T11:52:42;30.60;51.40
1259;DHT22;619;51.472;6.628;2022-07-29T11:55:10;30.60;51.90
1259;DHT22;619;51.472;6.628;2022-07-29T11:57:48;30.60;51.90
1259;DHT22;619;51.472;6.628;2022-07-29T12:02:54;30.50;51.10
1259;DHT22;619;51.472;6.628;2022-07-29T12:05:51;30.40;50.80
1259;DHT22;619;51.472;6.628;2022-07-29T12:08:23;30.20;50.90
1259;DHT22;619;51.472;6.628;2022-07-29T12:10:52;30.10;51.40
1259;DHT22;619;51.472;6.628;2022-07-29T12:13:19;30.00;51.80
1259;DHT22;619;51.472;6.628;2022-07-29T12:15:56;29.90;52.00
1259;DHT22;619;51.472;6.628;2022-07-29T12:18:22;29.70;51.90
1259;DHT22;619;51.472;6.628;2022-07-29T12:20:48;29.60;52.20
1259;DHT22;619;51.472;6.628;2022-07-29T12:23:21;29.50;52.20
1259;DHT22;619;51.472;6.628;2022-07-29T12:25:47;29.40;52.10
1259;DHT22;619;51.472;6.628;2022-07-29T12:28:16;29.30;52.60
1259;DHT22;619;51.472;6.628;2022-07-29T12:30:48;29.20;52.60
1259;DHT22;619;51.472;6.628;2022-07-29T12:35:45;29.10;52.90
1259;DHT22;619;51.472;6.628;2022-07-29T12:38:11;29.10;52.40
1259;DHT22;619;51.472;6.628;2022-07-29T12:40:38;29.10;52.30
1259;DHT22;619;51.472;6.628;2022-07-29T12:43:16;29.00;52.90
1259;DHT22;619;51.472;6.628;2022-07-29T12:45:45;29.00;53.90
1259;DHT22;619;51.472;6.628;2022-07-29T12:48:14;29.00;54.30
1259;DHT22;619;51.472;6.628;2022-07-29T12:51:12;28.90;54.40
1259;DHT22;619;51.472;6.628;2022-07-29T12:53:39;28.90;54.40
1259;DHT22;619;51.472;6.628;2022-07-29T12:56:15;28.80;54.20
1259;DHT22;619;51.472;6.628;2022-07-29T12:58:41;28.70;53.50
1259;DHT22;619;51.472;6.628;2022-07-29T13:03:52;28.70;52.60
1259;DHT22;619;51.472;6.628;2022-07-29T13:09:01;28.80;52.60
1259;DHT22;619;51.472;6.628;2022-07-29T13:11:35;28.80;53.20
1259;DHT22;619;51.472;6.628;2022-07-29T13:14:04;28.80;53.40
1259;DHT22;619;51.472;6.628;2022-07-29T13:16:30;28.80;52.90
1259;DHT22;619;51.472;6.628;2022-07-29T13:19:06;28.90;52.90
1259;DHT22;619;51.472;6.628;2022-07-29T13:21:32;28.90;53.00
1259;DHT22;619;51.472;6.628;2022-07-29T13:23:58;28.90;52.70
1259;DHT22;619;51.472;6.628;2022-07-29T13:26:23;28.90;52.80
1259;DHT22;619;51.472;6.628;2022-07-29T13:28:52;29.00;52.90
1259;DHT22;619;51.472;6.628;2022-07-29T13:31:17;29.00;52.80
1259;DHT22;619;51.472;6.628;2022-07-29T13:33:43;29.00;52.70
1259;DHT22;619;51.472;6.628;2022-07-29T13:36:09;29.10;53.30
1259;DHT22;619;51.472;6.628;2022-07-29T13:38:34;29.10;53.30
1259;DHT22;619;51.472;6.628;2022-07-29T13:41:00;29.30;53.40
1259;DHT22;619;51.472;6.628;2022-07-29T13:43:26;29.50;53.10
1259;DHT22;619;51.472;6.628;2022-07-29T13:45:52;29.70;52.40
1259;DHT22;619;51.472;6.628;2022-07-29T13:48:17;29.80;51.40
1259;DHT22;619;51.472;6.628;2022-07-29T13:50:45;30.00;51.50
1259;DHT22;619;51.472;6.628;2022-07-29T13:53:12;30.10;51.10
1259;DHT22;619;51.472;6.628;2022-07-29T13:55:40;30.20;51.40
1259;DHT22;619;51.472;6.628;2022-07-29T13:58:05;30.30;51.40
1259;DHT22;619;51.472;6.628;2022-07-29T14:00:31;30.40;50.00
1259;DHT22;619;51.472;6.628;2022-07-29T14:02:57;30.60;50.30
1259;DHT22;619;51.472;6.628;2022-07-29T14:05:24;30.80;50.40
1259;DHT22;619;51.472;6.628;2022-07-29T14:07:50;31.10;50.30
1259;DHT22;619;51.472;6.628;2022-07-29T14:10:15;31.30;49.40
1259;DHT22;619;51.472;6.628;2022-07-29T14:12:44;31.50;48.90
1259;DHT22;619;51.472;6.628;2022-07-29T14:15:09;31.80;49.30
1259;DHT22;619;51.472;6.628;2022-07-29T14:17:37;32.10;49.00
1259;DHT22;619;51.472;6.628;2022-07-29T14:20:04;32.50;47.40
1259;DHT22;619;51.472;6.628;2022-07-29T14:22:30;32.70;46.80
1259;DHT22;619;51.472;6.628;2022-07-29T14:24:56;32.90;46.60
1259;DHT22;619;51.472;6.628;2022-07-29T14:27:26;33.00;46.60
1259;DHT22;619;51.472;6.628;2022-07-29T14:29:52;33.20;45.70
1259;DHT22;619;51.472;6.628;2022-07-29T14:32:20;33.40;45.40
1259;DHT22;619;51.472;6.628;2022-07-29T14:34:47;33.50;45.40
1259;DHT22;619;51.472;6.628;2022-07-29T14:37:13;33.60;44.90
1259;DHT22;619;51.472;6.628;2022-07-29T14:39:38;33.70;44.80
1259;DHT22;619;51.472;6.628;2022-07-29T14:42:07;33.90;44.30
1259;DHT22;619;51.472;6.628;2022-07-29T14:44:33;33.90;44.10
1259;DHT22;619;51.472;6.628;2022-07-29T14:47:02;33.90;44.10
1259;DHT22;619;51.472;6.628;2022-07-29T14:49:27;33.90;43.90
1259;DHT22;619;51.472;6.628;2022-07-29T14:51:55;33.90;44.00
1259;DHT22;619;51.472;6.628;2022-07-29T14:54:21;33.90;43.60
1259;DHT22;619;51.472;6.628;2022-07-29T14:56:49;33.80;44.00
1259;DHT22;619;51.472;6.628;2022-07-29T14:59:16;33.80;43.30
1259;DHT22;619;51.472;6.628;2022-07-29T15:01:42;33.80;43.30
1259;DHT22;619;51.472;6.628;2022-07-29T15:04:08;33.80;43.60
1259;DHT22;619;51.472;6.628;2022-07-29T15:06:34;33.80;43.80
1259;DHT22;619;51.472;6.628;2022-07-29T15:09:03;33.90;44.20
1259;DHT22;619;51.472;6.628;2022-07-29T15:11:28;33.90;44.10
1259;DHT22;619;51.472;6.628;2022-07-29T15:13:57;34.10;44.50
1259;DHT22;619;51.472;6.628;2022-07-29T15:16:22;34.20;44.40
1259;DHT22;619;51.472;6.628;2022-07-29T15:18:48;34.40;44.40
1259;DHT22;619;51.472;6.628;2022-07-29T15:21:13;34.60;43.80
1259;DHT22;619;51.472;6.628;2022-07-29T15:23:40;34.80;43.30
1259;DHT22;619;51.472;6.628;2022-07-29T15:26:06;34.90;42.90
1259;DHT22;619;51.472;6.628;2022-07-29T15:28:32;34.90;42.50
1259;DHT22;619;51.472;6.628;2022-07-29T15:30:59;35.00;42.80
1259;DHT22;619;51.472;6.628;2022-07-29T15:33:25;35.10;42.20
1259;DHT22;619;51.472;6.628;2022-07-29T15:35:51;35.10;42.70
1259;DHT22;619;51.472;6.628;2022-07-29T15:38:17;35.10;42.10
1259;DHT22;619;51.472;6.628;2022-07-29T15:40:42;35.00;42.20
1259;DHT22;619;51.472;6.628;2022-07-29T15:43:12;35.00;42.60
1259;DHT22;619;51.472;6.628;2022-07-29T15:45:40;35.00;42.30
1259;DHT22;619;51.472;6.628;2022-07-29T15:48:08;35.10;42.30
1259;DHT22;619;51.472;6.628;2022-07-29T15:50:33;35.10;41.90
1259;DHT22;619;51.472;6.628;2022-07-29T15:52:59;35.00;42.20
1259;DHT22;619;51.472;6.628;2022-07-29T15:55:25;34.90;42.10
1259;DHT22;619;51.472;6.628;2022-07-29T15:57:53;34.80;42.20
1259;DHT22;619;51.472;6.628;2022-07-29T16:00:19;34.60;42.10
1259;DHT22;619;51.472;6.628;2022-07-29T16:02:46;34.40;41.90
1259;DHT22;619;51.472;6.628;2022-07-29T16:05:12;34.10;41.90
1259;DHT22;619;51.472;6.628;2022-07-29T16:07:38;33.90;42.10
1259;DHT22;619;51.472;6.628;2022-07-29T16:10:04;33.90;43.00
1259;DHT22;619;51.472;6.628;2022-07-29T16:12:32;33.80;43.20
1259;DHT22;619;51.472;6.628;2022-07-29T16:14:59;33.70;43.40
1259;DHT22;619;51.472;6.628;2022-07-29T16:17:25;33.60;43.50
1259;DHT22;619;51.472;6.628;2022-07-29T16:19:57;33.50;44.20
1259;DHT22;619;51.472;6.628;2022-07-29T16:22:23;33.50;44.10
1259;DHT22;619;51.472;6.628;2022-07-29T16:24:51;33.50;43.40
1259;DHT22;619;51.472;6.628;2022-07-29T16:27:17;33.40;42.90
1259;DHT22;619;51.472;6.628;2022-07-29T16:29:42;33.30;43.20
1259;DHT22;619;51.472;6.628;2022-07-29T16:32:08;33.30;42.80
1259;DHT22;619;51.472;6.628;2022-07-29T16:34:33;33.30;42.90
1259;DHT22;619;51.472;6.628;2022-07-29T16:36:59;33.30;43.00
1259;DHT22;619;51.472;6.628;2022-07-29T16:39:27;33.30;43.20
1259;DHT22;619;51.472;6.628;2022-07-29T16:41:52;33.10;42.90
1259;DHT22;619;51.472;6.628;2022-07-29T16:44:18;33.00;43.30
1259;DHT22;619;51.472;6.628;2022-07-29T16:46:46;33.00;44.30
1259;DHT22;619;51.472;6.628;2022-07-29T16:49:12;33.10;43.80
1259;DHT22;619;51.472;6.628;2022-07-29T16:51:37;33.40;43.90
1259;DHT22;619;51.472;6.628;2022-07-29T16:54:03;33.90;43.60
1259;DHT22;619;51.472;6.628;2022-07-29T16:56:29;34.50;42.40
1259;DHT22;619;51.472;6.628;2022-07-29T16:58:56;35.10;40.80
1259;DHT22;619;51.472;6.628;2022-07-29T17:01:22;35.60;40.10
1259;DHT22;619;51.472;6.628;2022-07-29T17:03:47;36.10;39.30
1259;DHT22;619;51.472;6.628;2022-07-29T17:06:38;36.50;38.50
1259;DHT22;619;51.472;6.628;2022-07-29T17:09:06;36.80;37.80
1259;DHT22;619;51.472;6.628;2022-07-29T17:11:32;36.80;37.50
1259;DHT22;619;51.472;6.628;2022-07-29T17:13:58;36.60;37.60
1259;DHT22;619;51.472;6.628;2022-07-29T17:16:25;36.20;38.00
1259;DHT22;619;51.472;6.628;2022-07-29T17:18:54;35.70;38.60
1259;DHT22;619;51.472;6.628;2022-07-29T17:21:22;35.10;39.60
1259;DHT22;619;51.472;6.628;2022-07-29T17:23:48;34.80;40.00
1259;DHT22;619;51.472;6.628;2022-07-29T17:26:23;34.50;40.60
1259;DHT22;619;51.472;6.628;2022-07-29T17:28:48;34.20;41.20
1259;DHT22;619;51.472;6.628;2022-07-29T17:31:14;34.10;41.10
1259;DHT22;619;51.472;6.628;2022-07-29T17:33:40;34.10;41.60